Time;durP1;ratioP1;P1;durP2;ratioP2;P2;SDS_P1;SDS_P2;PMS_P1;PMS_P2;Temp;Humidity;BMP_temperature;BMP_pressure;BME280_temperature;BME280_humidity;BME280_pressure;Samples;Min_cycle;Max_cycle;Signal;HPM_P1;HPM_P2
2021/06/26 00:02:21;;;;;;;11.80;8.03;;;;;;;13.18;79.37;95925.28;4957422;28;20187;-76
2021/06/26 00:04:46;;;;;;;9.83;8.10;;;;;;;13.18;79.51;95924.47;4948781;28;20209;-76
2021/06/26 00:07:11;;;;;;;9.30;8.30;;;;;;;13.20;78.89;95925.16;4963289;28;20213;-77
2021/06/26 00:09:37;;;;;;;9.17;8.13;;;;;;;13.15;78.83;95930.78;4955732;28;20177;-75
2021/06/26 00:12:03;;;;;;;9.77;8.80;;;;;;;13.17;78.43;95925.44;4938513;29;20772;-76
2021/06/26 00:14:28;;;;;;;9.47;8.40;;;;;;;13.17;79.29;95930.66;4940119;29;20716;-77
2021/06/26 00:16:53;;;;;;;9.30;8.50;;;;;;;13.15;79.01;95928.16;4946088;29;20727;-76
2021/06/26 00:19:19;;;;;;;9.63;8.73;;;;;;;13.09;78.76;95923.59;4938213;29;20189;-76
2021/06/26 00:21:44;;;;;;;12.73;9.57;;;;;;;13.01;78.92;95923.53;4938230;29;20180;-77
2021/06/26 00:24:09;;;;;;;11.63;9.93;;;;;;;13.00;78.97;95921.91;4937001;28;20181;-77
2021/06/26 00:26:34;;;;;;;12.37;9.50;;;;;;;12.93;79.50;95915.66;4947557;28;20217;-76
2021/06/26 00:29:00;;;;;;;12.23;9.80;;;;;;;12.96;79.52;95925.78;4951652;28;20188;-76
2021/06/26 00:31:25;;;;;;;11.77;10.57;;;;;;;12.94;79.61;95919.91;4944061;29;20188;-76
2021/06/26 00:33:50;;;;;;;12.50;10.60;;;;;;;12.95;79.56;95924.13;4937025;29;20193;-76
2021/06/26 00:36:16;;;;;;;11.90;10.13;;;;;;;12.94;79.12;95917.28;4943975;28;20221;-76
2021/06/26 00:38:41;;;;;;;11.77;10.43;;;;;;;12.93;79.38;95916.47;4945242;29;20666;-77
2021/06/26 00:41:07;;;;;;;13.67;10.63;;;;;;;12.87;79.96;95916.25;4937424;29;20173;-76
2021/06/26 00:43:32;;;;;;;14.07;11.27;;;;;;;12.84;79.94;95922.59;4937518;29;20189;-77
2021/06/26 00:45:59;;;;;;;13.77;11.40;;;;;;;12.81;80.39;95922.06;4939107;28;20200;-76
2021/06/26 00:48:24;;;;;;;13.53;11.77;;;;;;;12.78;80.33;95915.38;4950368;29;20185;-76
2021/06/26 00:50:50;;;;;;;12.33;11.07;;;;;;;12.75;80.70;95919.13;4953241;28;20192;-77
2021/06/26 00:53:16;;;;;;;12.63;11.07;;;;;;;12.69;80.70;95911.91;4937262;29;20193;-77
2021/06/26 00:55:51;;;;;;;11.93;10.73;;;;;;;12.58;81.64;95917.34;4937116;29;20213;-76
2021/06/26 00:58:17;;;;;;;13.47;11.10;;;;;;;12.47;81.83;95904.56;4946877;28;20204;-76
2021/06/26 01:00:42;;;;;;;12.10;10.90;;;;;;;12.42;81.82;95904.19;4947698;28;20609;-76
2021/06/26 01:03:07;;;;;;;11.80;10.60;;;;;;;12.43;81.49;95906.66;4973395;28;20176;-76
2021/06/26 01:05:32;;;;;;;10.80;9.77;;;;;;;12.47;81.38;95913.22;4956062;28;20189;-76
2021/06/26 01:07:58;;;;;;;12.60;10.90;;;;;;;12.46;81.39;95908.97;4970952;28;20201;-76
2021/06/26 01:10:23;;;;;;;11.80;10.60;;;;;;;12.50;81.13;95906.88;4945020;29;20188;-76
2021/06/26 01:12:49;;;;;;;12.70;10.77;;;;;;;12.58;80.58;95903.50;4954194;29;20181;-76
2021/06/26 01:15:15;;;;;;;13.10;10.67;;;;;;;12.66;80.01;95893.97;4936969;29;20280;-76
2021/06/26 01:17:41;;;;;;;12.13;10.87;;;;;;;12.74;80.20;95904.47;4937567;28;20185;-77
2021/06/26 01:20:08;;;;;;;12.40;11.10;;;;;;;12.73;80.23;95896.81;4930203;28;20189;-76
2021/06/26 01:22:41;;;;;;;12.33;11.10;;;;;;;12.75;80.27;95894.84;4937318;29;20187;-77
2021/06/26 01:25:07;;;;;;;14.27;11.60;;;;;;;12.71;80.83;95896.94;4937677;29;20177;-76
2021/06/26 01:27:32;;;;;;;13.30;11.20;;;;;;;12.79;80.82;95897.97;4954058;29;20180;-75
2021/06/26 01:29:57;;;;;;;12.83;11.47;;;;;;;12.82;81.17;95902.88;4941189;28;20193;-75
2021/06/26 01:32:22;;;;;;;13.37;11.43;;;;;;;12.85;81.25;95902.56;4942233;29;20181;-75
2021/06/26 01:34:48;;;;;;;13.03;11.60;;;;;;;12.91;81.25;95894.16;4919376;29;20213;-75
2021/06/26 01:37:14;;;;;;;17.07;11.60;;;;;;;12.98;80.88;95898.56;4938465;29;20197;-75
2021/06/26 01:39:39;;;;;;;12.97;11.77;;;;;;;13.04;81.21;95903.19;4960486;28;20230;-75
2021/06/26 01:42:05;;;;;;;12.90;11.47;;;;;;;13.08;81.02;95908.91;4950309;28;20189;-75
2021/06/26 01:44:32;;;;;;;13.30;11.63;;;;;;;13.10;80.87;95899.16;4957894;28;20176;-75
2021/06/26 01:46:57;;;;;;;13.90;11.87;;;;;;;13.03;80.66;95893.72;4975527;28;20196;-75
2021/06/26 01:49:22;;;;;;;14.43;12.93;;;;;;;13.05;81.05;95888.34;4975188;28;20177;-75
2021/06/26 01:51:48;;;;;;;13.03;11.63;;;;;;;13.08;80.92;95890.66;4949546;28;20193;-75
2021/06/26 01:54:13;;;;;;;13.87;11.27;;;;;;;13.07;80.89;95880.38;4957878;28;20544;-75
2021/06/26 01:56:40;;;;;;;15.30;12.37;;;;;;;13.09;81.28;95884.47;4957876;28;20224;-74
2021/06/26 01:59:05;;;;;;;13.07;11.67;;;;;;;13.12;81.29;95878.94;4958119;28;20180;-75
2021/06/26 02:01:32;;;;;;;13.33;11.90;;;;;;;13.10;81.17;95886.13;4951208;29;20232;-75
2021/06/26 02:03:57;;;;;;;13.40;11.60;;;;;;;13.07;81.24;95886.41;4946389;29;20173;-76
2021/06/26 02:06:23;;;;;;;13.23;11.93;;;;;;;13.07;81.39;95881.19;4922887;29;20699;-75
2021/06/26 02:08:48;;;;;;;13.10;11.80;;;;;;;13.04;81.35;95879.72;4956035;29;20201;-75
2021/06/26 02:11:13;;;;;;;14.90;11.33;;;;;;;13.03;81.55;95874.66;4956623;28;20702;-74
2021/06/26 02:13:38;;;;;;;14.20;11.50;;;;;;;13.09;81.38;95879.25;4973535;28;20191;-75
2021/06/26 02:16:04;;;;;;;13.87;12.37;;;;;;;13.04;81.62;95871.88;4939535;29;20213;-75
2021/06/26 02:18:29;;;;;;;13.90;12.40;;;;;;;13.03;81.64;95870.25;4954807;29;20311;-75
2021/06/26 02:20:55;;;;;;;14.70;13.10;;;;;;;13.04;81.83;95866.69;4955841;29;20236;-75
2021/06/26 02:23:20;;;;;;;13.47;12.07;;;;;;;13.02;81.90;95870.41;4945027;28;20601;-75
2021/06/26 02:25:45;;;;;;;13.27;11.87;;;;;;;13.03;81.84;95872.06;4941807;29;20616;-75
2021/06/26 02:28:10;;;;;;;13.67;12.27;;;;;;;13.01;82.36;95874.81;4938629;29;20216;-75
2021/06/26 02:30:36;;;;;;;14.43;11.23;;;;;;;12.95;82.53;95877.22;4955723;29;20704;-75
2021/06/26 02:33:01;;;;;;;15.57;12.00;;;;;;;12.93;82.53;95876.56;4959785;28;20189;-75
2021/06/26 02:35:26;;;;;;;14.47;12.73;;;;;;;12.91;82.57;95876.72;4965333;28;21042;-75
2021/06/26 02:37:52;;;;;;;13.80;12.50;;;;;;;12.92;82.67;95880.97;4972415;28;20199;-75
2021/06/26 02:40:17;;;;;;;13.63;12.23;;;;;;;12.92;82.99;95882.75;4949277;28;20204;-75
2021/06/26 02:42:43;;;;;;;13.90;12.23;;;;;;;12.88;83.25;95881.41;4957471;28;20188;-76
2021/06/26 02:45:08;;;;;;;16.03;12.80;;;;;;;12.89;83.32;95889.06;4965259;28;20193;-75
2021/06/26 02:47:34;;;;;;;14.13;12.63;;;;;;;12.94;83.31;95884.22;4959888;28;20193;-74
2021/06/26 02:49:59;;;;;;;13.80;12.40;;;;;;;13.02;82.85;95878.25;4921761;29;20196;-75
2021/06/26 02:52:24;;;;;;;15.50;13.83;;;;;;;13.00;83.02;95877.59;4938040;29;20224;-75
2021/06/26 02:54:50;;;;;;;16.13;13.17;;;;;;;13.01;83.06;95879.22;4957365;28;20224;-75
2021/06/26 02:57:15;;;;;;;14.90;13.30;;;;;;;13.03;82.92;95880.69;4945249;29;20213;-75
2021/06/26 02:59:41;;;;;;;16.37;13.77;;;;;;;13.07;82.94;95875.97;4953776;29;20181;-75
2021/06/26 03:02:06;;;;;;;16.70;13.87;;;;;;;13.10;82.82;95875.69;4937947;29;20256;-74
2021/06/26 03:04:31;;;;;;;17.03;13.63;;;;;;;13.12;82.73;95875.53;4956602;28;21728;-75
2021/06/26 03:06:57;;;;;;;14.53;13.07;;;;;;;13.13;82.97;95882.38;4955067;28;20212;-75
2021/06/26 03:09:22;;;;;;;16.97;13.80;;;;;;;13.12;82.95;95884.16;4937738;29;20181;-75
2021/06/26 03:11:47;;;;;;;15.63;13.50;;;;;;;13.19;82.75;95885.22;4937929;29;20205;-74
2021/06/26 03:14:13;;;;;;;16.70;14.90;;;;;;;13.21;82.69;95874.63;4937443;29;20555;-75
2021/06/26 03:16:38;;;;;;;15.87;14.17;;;;;;;13.18;83.23;95872.31;4944120;28;20209;-75
2021/06/26 03:19:04;;;;;;;15.90;14.17;;;;;;;13.20;82.94;95873.00;4945424;29;20235;-76
2021/06/26 03:21:29;;;;;;;15.40;13.20;;;;;;;13.22;82.90;95878.84;4937416;29;20174;-75
2021/06/26 03:23:54;;;;;;;13.90;12.40;;;;;;;13.24;83.02;95876.91;4953097;29;20610;-75
2021/06/26 03:26:20;;;;;;;15.53;13.63;;;;;;;13.25;83.06;95873.31;4956889;28;20291;-75
2021/06/26 03:28:45;;;;;;;15.00;13.13;;;;;;;13.23;83.08;95868.25;4965654;28;20268;-75
2021/06/26 03:31:12;;;;;;;18.33;14.40;;;;;;;13.24;82.98;95877.72;4973846;28;20220;-75
2021/06/26 03:33:37;;;;;;;16.10;14.37;;;;;;;13.23;82.81;95867.44;4973342;28;20177;-75
2021/06/26 03:36:03;;;;;;;15.47;13.87;;;;;;;13.31;82.62;95868.31;4956117;28;20290;-75
2021/06/26 03:38:28;;;;;;;15.63;13.90;;;;;;;13.32;82.58;95863.91;4964399;28;20196;-75
2021/06/26 03:40:54;;;;;;;15.77;13.77;;;;;;;13.35;82.88;95873.22;4956678;28;20196;-75
2021/06/26 03:43:19;;;;;;;16.77;13.87;;;;;;;13.37;82.88;95866.88;4952709;29;20195;-75
2021/06/26 03:45:45;;;;;;;16.17;14.00;;;;;;;13.40;83.28;95868.34;4944704;28;20215;-75
2021/06/26 03:48:10;;;;;;;15.73;13.50;;;;;;;13.42;83.39;95874.22;4928526;29;20192;-75
2021/06/26 03:50:37;;;;;;;15.40;13.50;;;;;;;13.44;83.11;95872.28;4954168;29;20181;-75
2021/06/26 03:53:02;;;;;;;14.80;13.20;;;;;;;13.45;83.28;95879.13;4936966;29;20181;-76
2021/06/26 03:55:28;;;;;;;13.47;12.07;;;;;;;13.45;83.62;95874.72;4936855;28;20216;-74
2021/06/26 03:57:53;;;;;;;14.43;12.90;;;;;;;13.45;83.64;95873.91;4946939;28;20255;-75
2021/06/26 04:00:19;;;;;;;14.43;12.93;;;;;;;13.46;83.52;95878.16;4953194;28;20629;-75
2021/06/26 04:02:44;;;;;;;14.90;13.40;;;;;;;13.49;83.84;95877.84;4953796;29;20204;-75
2021/06/26 04:05:09;;;;;;;14.53;13.03;;;;;;;13.48;83.73;95882.25;4953652;29;20184;-75
2021/06/26 04:07:35;;;;;;;15.20;13.67;;;;;;;13.49;83.64;95883.88;4941847;29;20201;-75
2021/06/26 04:10:00;;;;;;;16.53;13.57;;;;;;;13.49;83.50;95885.66;4961736;28;20193;-75
2021/06/26 04:12:25;;;;;;;15.87;13.57;;;;;;;13.50;83.39;95889.91;4953952;28;20275;-75
2021/06/26 04:14:51;;;;;;;14.77;13.37;;;;;;;13.52;83.77;95886.19;4936335;29;20287;-75
2021/06/26 04:17:16;;;;;;;16.80;13.60;;;;;;;13.54;83.84;95881.63;4955995;28;20235;-74
2021/06/26 04:19:41;;;;;;;15.93;13.57;;;;;;;13.55;83.50;95883.25;4964885;28;20184;-75
2021/06/26 04:22:07;;;;;;;15.23;13.63;;;;;;;13.59;83.56;95878.53;4954234;28;20196;-75
2021/06/26 04:24:32;;;;;;;16.43;13.00;;;;;;;13.59;83.57;95881.13;4952139;29;20181;-75
2021/06/26 04:26:57;;;;;;;14.07;12.57;;;;;;;13.60;83.78;95883.59;4936379;29;20238;-75
2021/06/26 04:29:23;;;;;;;16.73;13.87;;;;;;;13.62;83.36;95888.66;4935319;28;20199;-75
2021/06/26 04:31:49;;;;;;;15.03;13.53;;;;;;;13.66;83.37;95892.56;4955406;28;20184;-75
2021/06/26 04:34:14;;;;;;;16.97;14.23;;;;;;;13.68;82.97;95892.41;4954972;28;20336;-75
2021/06/26 04:36:41;;;;;;;16.27;12.83;;;;;;;13.71;83.15;95889.50;4955437;28;20338;-75
2021/06/26 04:39:07;;;;;;;14.03;12.50;;;;;;;13.71;83.00;95881.69;4969221;28;20189;-75
2021/06/26 04:41:37;;;;;;;14.83;13.30;;;;;;;13.76;82.92;95882.81;4944081;29;20181;-75
2021/06/26 04:44:03;;;;;;;15.40;13.83;;;;;;;13.77;83.50;95874.00;4936055;29;20264;-76
2021/06/26 04:46:29;;;;;;;15.17;13.43;;;;;;;13.78;83.62;95878.28;4920119;29;20214;-75
2021/06/26 04:48:54;;;;;;;15.17;13.77;;;;;;;13.82;84.00;95879.59;4953834;28;20190;-75
2021/06/26 04:51:19;;;;;;;16.03;13.80;;;;;;;13.84;83.68;95875.00;4971285;28;20188;-76
2021/06/26 04:53:45;;;;;;;15.63;14.00;;;;;;;13.86;82.77;95878.28;4939417;29;20272;-75
2021/06/26 04:56:10;;;;;;;16.80;14.57;;;;;;;13.91;82.41;95877.81;4920280;29;20339;-75
2021/06/26 04:58:35;;;;;;;14.53;13.00;;;;;;;13.92;82.42;95874.22;4953319;29;20279;-75
2021/06/26 05:01:01;;;;;;;15.57;13.53;;;;;;;13.92;82.75;95876.00;4957822;28;20617;-75
2021/06/26 05:03:26;;;;;;;14.97;13.47;;;;;;;13.93;82.94;95877.63;4958813;28;20187;-75
2021/06/26 05:05:52;;;;;;;15.57;13.97;;;;;;;14.02;82.21;95871.47;4953365;28;20224;-75
2021/06/26 05:08:17;;;;;;;16.03;13.87;;;;;;;14.13;81.93;95877.22;4936181;29;20598;-75
2021/06/26 05:10:43;;;;;;;15.30;13.57;;;;;;;14.26;81.80;95878.50;4941537;28;20200;-75
2021/06/26 05:13:09;;;;;;;15.43;12.73;;;;;;;14.33;81.18;95890.78;4931735;28;20191;-75
2021/06/26 05:15:35;;;;;;;14.30;12.80;;;;;;;14.36;80.77;95887.00;4923735;29;20267;-75
2021/06/26 05:18:00;;;;;;;17.43;13.13;;;;;;;14.50;80.17;95882.97;4939890;29;20181;-75
2021/06/26 05:20:26;;;;;;;15.47;13.87;;;;;;;15.35;78.36;95888.53;4939688;29;20189;-74
2021/06/26 05:22:51;;;;;;;15.50;12.38;;;;;;;16.25;73.67;95884.50;4974150;28;20707;-76
2021/06/26 05:25:17;;;;;;;14.10;10.77;;;;;;;16.84;72.52;95881.28;4940092;29;20189;-75
2021/06/26 05:27:42;;;;;;;13.68;12.10;;;;;;;17.89;67.36;95891.66;4956875;29;20189;-74
2021/06/26 05:30:08;;;;;;;11.15;10.15;;;;;;;19.50;63.65;95899.72;4939857;29;20731;-76
2021/06/26 05:32:33;;;;;;;11.15;10.15;;;;;;;21.00;58.49;95901.41;4942474;29;20189;-76
2021/06/26 05:34:59;;;;;;;10.73;9.65;;;;;;;22.41;53.63;95909.56;4946950;29;20205;-76
2021/06/26 05:37:24;;;;;;;10.40;9.05;;;;;;;23.79;49.02;95910.28;4939389;29;20237;-75
2021/06/26 05:39:49;;;;;;;10.20;8.93;;;;;;;23.81;47.22;95902.91;4939350;29;20228;-76
2021/06/26 05:42:15;;;;;;;10.88;9.77;;;;;;;24.58;44.32;95908.50;4958000;28;20201;-76
2021/06/26 05:44:40;;;;;;;10.43;9.43;;;;;;;24.43;44.58;95916.88;4950887;29;20177;-76
2021/06/26 05:47:05;;;;;;;11.82;10.63;;;;;;;24.54;43.55;95915.28;4957589;28;20204;-76
2021/06/26 05:49:31;;;;;;;11.80;10.70;;;;;;;23.64;46.51;95913.31;4975306;28;20257;-76
2021/06/26 05:51:56;;;;;;;14.18;12.82;;;;;;;22.97;48.31;95914.94;4958451;28;20183;-76
2021/06/26 05:54:21;;;;;;;15.93;14.00;;;;;;;22.66;48.53;95913.06;4940716;28;20204;-76
2021/06/26 05:56:47;;;;;;;14.98;13.52;;;;;;;21.73;51.47;95913.50;4948012;28;20279;-75
2021/06/26 05:59:12;;;;;;;14.60;13.40;;;;;;;22.10;50.81;95915.66;4958236;28;20648;-76
2021/06/26 06:01:38;;;;;;;14.05;12.65;;;;;;;22.34;49.95;95909.59;4958292;28;20243;-75
2021/06/26 06:04:05;;;;;;;16.42;14.80;;;;;;;21.61;52.26;95915.16;4954906;28;20548;-76
2021/06/26 06:06:31;;;;;;;15.77;14.13;;;;;;;21.48;51.54;95912.56;4947150;29;20201;-75
2021/06/26 06:08:56;;;;;;;15.23;13.73;;;;;;;20.76;54.23;95916.84;4956401;29;20294;-76
2021/06/26 06:11:21;;;;;;;14.85;13.35;;;;;;;21.28;52.75;95920.50;4955012;29;20629;-76
2021/06/26 06:13:47;;;;;;;13.85;12.45;;;;;;;21.49;52.96;95915.00;4939027;29;20204;-76
2021/06/26 06:16:12;;;;;;;16.00;14.50;;;;;;;20.67;55.90;95909.28;4968324;28;20288;-76
2021/06/26 06:18:38;;;;;;;16.52;14.73;;;;;;;21.25;53.48;95912.16;4971181;28;20584;-76
2021/06/26 06:21:03;;;;;;;17.40;15.32;;;;;;;20.80;55.40;95911.97;4958312;28;20180;-76
2021/06/26 06:23:29;;;;;;;16.05;14.38;;;;;;;21.04;54.13;95910.56;4974064;28;20180;-76
2021/06/26 06:25:55;;;;;;;15.23;13.63;;;;;;;20.79;55.55;95911.16;4955213;28;20219;-76
2021/06/26 06:28:20;;;;;;;15.95;14.30;;;;;;;20.64;55.34;95915.78;4951250;28;20172;-76
2021/06/26 06:30:47;;;;;;;14.77;13.23;;;;;;;20.85;55.67;95914.81;4975025;28;20187;-75
2021/06/26 06:33:12;;;;;;;16.08;14.43;;;;;;;22.11;52.78;95911.97;4958084;28;20607;-76
2021/06/26 06:35:37;;;;;;;14.73;12.82;;;;;;;24.38;47.51;95916.72;4956552;28;20220;-76
2021/06/26 06:38:02;;;;;;;14.43;12.95;;;;;;;24.12;47.47;95915.22;4951454;28;20247;-76
2021/06/26 06:40:28;;;;;;;14.07;12.75;;;;;;;23.57;48.24;95919.66;4955789;29;20227;-75
2021/06/26 06:42:54;;;;;;;13.68;12.27;;;;;;;24.53;44.77;95924.28;4938505;29;20188;-75
2021/06/26 06:45:20;;;;;;;13.75;12.40;;;;;;;25.02;43.04;95920.53;4937749;29;20560;-76
2021/06/26 06:47:45;;;;;;;14.55;13.15;;;;;;;24.08;46.32;95929.94;4967700;28;20220;-76
2021/06/26 06:50:11;;;;;;;13.73;12.40;;;;;;;24.46;45.59;95931.53;4966230;28;20263;-76
2021/06/26 06:52:37;;;;;;;14.32;12.93;;;;;;;23.60;46.07;95930.69;4941088;28;20183;-75
2021/06/26 06:55:04;;;;;;;14.50;13.10;;;;;;;22.06;50.84;95921.31;4974715;28;20204;-76
2021/06/26 06:57:30;;;;;;;14.18;12.05;;;;;;;22.26;50.48;95929.19;4940200;28;20184;-76
2021/06/26 06:59:55;;;;;;;13.95;12.45;;;;;;;21.41;53.64;95927.59;4947932;29;20169;-75
2021/06/26 07:02:21;;;;;;;15.30;13.80;;;;;;;21.24;53.27;95926.38;4937786;29;20180;-75
2021/06/26 07:04:46;;;;;;;15.23;13.73;;;;;;;20.85;55.51;95926.19;4937644;29;20177;-75
2021/06/26 07:07:12;;;;;;;16.27;13.50;;;;;;;21.31;54.14;95930.66;4953686;29;20934;-75
2021/06/26 07:09:37;;;;;;;14.73;13.23;;;;;;;21.43;52.79;95926.38;4947401;28;20195;-74
2021/06/26 07:12:03;;;;;;;14.73;13.20;;;;;;;20.56;54.53;95922.06;4954092;28;20216;-75
2021/06/26 07:14:29;;;;;;;15.30;13.75;;;;;;;20.96;54.13;95929.22;4937305;29;20584;-75
2021/06/26 07:16:54;;;;;;;16.05;14.38;;;;;;;20.54;54.74;95928.56;4937630;29;20193;-75
2021/06/26 07:19:19;;;;;;;14.13;12.63;;;;;;;21.05;52.02;95920.91;4943118;28;20184;-78
2021/06/26 07:21:45;;;;;;;12.38;11.07;;;;;;;22.01;51.26;95926.44;4951756;28;20219;-76
2021/06/26 07:24:11;;;;;;;11.30;10.20;;;;;;;21.94;49.28;95916.91;4952388;28;20551;-75
2021/06/26 07:26:36;;;;;;;12.05;10.75;;;;;;;21.85;50.46;95926.06;4937297;29;20204;-75
2021/06/26 07:29:03;;;;;;;11.30;10.23;;;;;;;21.30;51.69;95923.75;4939398;28;20176;-75
2021/06/26 07:31:28;;;;;;;14.13;11.40;;;;;;;21.15;51.60;95931.06;4956379;28;20176;-77
2021/06/26 07:33:54;;;;;;;12.20;11.00;;;;;;;21.55;51.09;95929.19;4955925;28;20179;-75
2021/06/26 07:36:19;;;;;;;12.63;11.38;;;;;;;21.96;50.78;95930.72;4956225;28;20622;-75
2021/06/26 07:38:45;;;;;;;13.98;11.75;;;;;;;22.25;49.27;95926.75;4956564;28;20292;-75
2021/06/26 07:41:10;;;;;;;12.55;11.32;;;;;;;22.65;48.45;95927.34;4968087;28;20185;-76
2021/06/26 07:43:35;;;;;;;14.15;11.43;;;;;;;22.74;49.22;95925.25;4951031;28;20176;-75
2021/06/26 07:46:02;;;;;;;12.63;11.43;;;;;;;22.15;49.89;95927.19;4956185;28;20248;-76
2021/06/26 07:48:28;;;;;;;13.57;12.18;;;;;;;21.81;49.85;95924.84;4972364;28;20545;-74
2021/06/26 07:50:53;;;;;;;12.98;11.07;;;;;;;22.01;50.06;95915.84;4954464;28;20243;-74
2021/06/26 07:53:19;;;;;;;12.50;11.20;;;;;;;22.11;50.64;95910.13;4961451;28;20588;-75
2021/06/26 07:55:51;;;;;;;14.85;12.57;;;;;;;21.25;51.56;95909.50;4952843;29;20509;-76
2021/06/26 07:58:17;;;;;;;13.48;12.20;;;;;;;21.13;52.78;95909.31;4938613;29;20177;-77
2021/06/26 08:00:43;;;;;;;14.27;12.50;;;;;;;20.78;54.32;95906.09;4937516;28;20181;-75
2021/06/26 08:03:08;;;;;;;16.92;14.48;;;;;;;20.16;55.94;95910.59;4970155;28;20192;-74
2021/06/26 08:05:34;;;;;;;16.92;13.32;;;;;;;20.32;56.95;95907.59;4953741;29;20190;-76
2021/06/26 08:07:59;;;;;;;15.05;13.13;;;;;;;20.73;56.88;95901.38;4936544;29;20558;-76
2021/06/26 08:10:24;;;;;;;13.88;12.43;;;;;;;20.90;55.21;95897.34;4952738;28;20275;-77
2021/06/26 08:12:50;;;;;;;17.42;13.60;;;;;;;20.93;54.88;95904.84;4940684;28;20188;-79
2021/06/26 08:15:17;;;;;;;14.57;13.02;;;;;;;21.43;53.13;95909.72;4961535;28;20205;-78
2021/06/26 08:17:42;;;;;;;14.48;12.98;;;;;;;20.84;55.24;95905.25;4952966;29;20272;-77
2021/06/26 08:20:08;;;;;;;14.35;12.85;;;;;;;21.58;53.44;95910.28;4920954;29;20269;-76
2021/06/26 08:22:33;;;;;;;14.65;12.60;;;;;;;21.40;52.38;95902.22;4957978;28;20552;-76
2021/06/26 08:24:58;;;;;;;15.05;11.82;;;;;;;21.31;53.18;95903.44;4945824;28;20652;-76
2021/06/26 08:27:24;;;;;;;13.30;12.00;;;;;;;21.59;52.04;95895.25;4953764;29;20208;-76
2021/06/26 08:29:49;;;;;;;10.45;9.35;;;;;;;22.04;51.39;95902.19;4936830;29;20186;-76
2021/06/26 08:32:14;;;;;;;10.10;9.07;;;;;;;22.31;48.68;95905.56;4936548;29;20233;-76
2021/06/26 08:34:40;;;;;;;11.15;9.20;;;;;;;22.03;48.85;95899.75;4951922;28;20208;-76
2021/06/26 08:37:05;;;;;;;10.00;8.75;;;;;;;22.00;48.73;95902.84;4937744;29;20212;-77
2021/06/26 08:39:30;;;;;;;11.23;10.13;;;;;;;21.99;48.62;95899.34;4937273;29;20216;-76
2021/06/26 08:41:56;;;;;;;12.05;10.45;;;;;;;21.69;50.42;95893.78;4953440;29;20188;-76
2021/06/26 08:44:21;;;;;;;11.35;10.25;;;;;;;21.15;51.78;95894.09;4957069;28;20177;-76
2021/06/26 08:46:49;;;;;;;11.30;10.15;;;;;;;21.76;51.48;95896.41;4943770;29;20201;-75
2021/06/26 08:49:15;;;;;;;13.18;11.88;;;;;;;21.58;50.66;95893.63;4936408;29;20260;-75
2021/06/26 08:51:41;;;;;;;12.63;11.43;;;;;;;21.46;51.83;95894.25;4937806;29;20185;-76
2021/06/26 08:54:16;;;;;;;12.18;11.07;;;;;;;21.37;51.95;95902.59;4939556;28;20212;-77
2021/06/26 08:56:43;;;;;;;11.25;10.18;;;;;;;21.11;51.75;95893.66;4977044;28;20192;-76
2021/06/26 08:59:09;;;;;;;11.35;10.20;;;;;;;21.00;53.94;95898.75;4937775;29;20497;-76
2021/06/26 09:01:39;;;;;;;11.68;10.63;;;;;;;21.49;50.51;95895.69;4936028;29;20177;-76
2021/06/26 09:04:11;;;;;;;12.80;11.50;;;;;;;21.95;50.93;95895.53;4935888;29;20595;-77
2021/06/26 09:06:53;;;;;;;12.65;11.30;;;;;;;21.63;52.25;95891.16;4950952;28;20201;-76
2021/06/26 09:09:29;;;;;;;12.75;11.45;;;;;;;21.31;51.92;95890.25;4951680;29;20328;-76
2021/06/26 09:12:03;;;;;;;14.77;12.90;;;;;;;21.47;51.86;95881.88;4936261;29;20388;-77
2021/06/26 09:14:28;;;;;;;13.25;11.95;;;;;;;20.75;54.63;95893.28;4937776;29;20700;-77
2021/06/26 09:16:53;;;;;;;16.25;12.13;;;;;;;20.69;54.42;95879.06;4941212;28;20217;-77
2021/06/26 09:19:19;;;;;;;11.35;10.25;;;;;;;20.85;52.55;95883.94;4944311;29;20181;-77
2021/06/26 09:21:58;;;;;;;10.68;9.65;;;;;;;20.86;53.13;95879.50;4937330;29;20504;-77
2021/06/26 09:24:24;;;;;;;8.63;7.88;;;;;;;21.63;48.68;95878.75;4937329;29;20260;-76
2021/06/26 09:26:58;;;;;;;9.35;8.50;;;;;;;21.84;47.94;95874.22;4942881;28;20291;-75
2021/06/26 09:29:24;;;;;;;9.57;8.68;;;;;;;21.67;48.67;95876.53;4944875;29;20169;-76
2021/06/26 09:31:57;;;;;;;10.63;9.52;;;;;;;21.24;50.13;95874.38;4937349;29;20732;-77
2021/06/26 09:34:34;;;;;;;10.40;8.75;;;;;;;21.63;49.19;95870.00;4937392;29;20218;-77
2021/06/26 09:37:01;;;;;;;10.65;9.65;;;;;;;22.00;49.14;95877.22;4939711;28;20208;-77
2021/06/26 09:39:42;;;;;;;11.40;10.35;;;;;;;21.94;51.33;95867.47;4951254;29;20181;-77
2021/06/26 09:42:21;;;;;;;10.45;9.45;;;;;;;22.31;51.86;95863.22;4937386;29;20173;-77
2021/06/26 09:44:57;;;;;;;11.27;10.25;;;;;;;22.49;49.12;95869.63;4937277;29;20537;-77
2021/06/26 09:47:39;;;;;;;13.52;11.00;;;;;;;22.85;49.02;95868.97;4936366;28;20285;-76
2021/06/26 09:50:19;;;;;;;12.15;10.85;;;;;;;22.55;49.56;95871.44;4946858;28;20185;-76
2021/06/26 09:52:52;;;;;;;11.35;10.20;;;;;;;23.03;49.28;95871.66;4971994;28;20547;-76
2021/06/26 09:55:21;;;;;;;13.15;11.93;;;;;;;22.03;49.40;95882.06;4954483;28;20207;-76
2021/06/26 09:57:47;;;;;;;11.95;10.75;;;;;;;21.52;52.55;95875.97;4955402;28;20185;-76
2021/06/26 10:00:13;;;;;;;13.20;10.85;;;;;;;21.83;52.05;95862.84;4949136;28;20188;-76
2021/06/26 10:02:39;;;;;;;11.18;9.85;;;;;;;21.39;52.94;95871.53;4943454;29;20188;-75
2021/06/26 10:05:06;;;;;;;13.73;11.07;;;;;;;21.18;52.08;95869.91;4938811;29;20170;-77
2021/06/26 10:07:32;;;;;;;12.48;11.18;;;;;;;21.47;50.45;95876.59;4938948;29;20209;-76
2021/06/26 10:09:59;;;;;;;11.95;10.75;;;;;;;21.48;50.76;95871.09;4948240;28;20228;-76
2021/06/26 10:12:24;;;;;;;13.43;10.75;;;;;;;21.93;51.23;95875.63;4962245;28;20271;-77
2021/06/26 10:14:50;;;;;;;12.77;10.50;;;;;;;21.92;51.08;95877.44;4938451;29;20249;-77
2021/06/26 10:17:15;;;;;;;11.15;10.13;;;;;;;22.07;50.96;95874.53;4938755;29;20288;-76
2021/06/26 10:19:42;;;;;;;9.95;8.95;;;;;;;22.57;50.18;95867.53;4940920;28;20177;-76
2021/06/26 10:22:08;;;;;;;9.05;8.23;;;;;;;22.13;49.08;95867.59;4967175;28;20185;-77
2021/06/26 10:24:34;;;;;;;11.27;10.27;;;;;;;21.77;49.82;95869.78;4957596;28;20195;-77
2021/06/26 10:27:00;;;;;;;11.27;9.60;;;;;;;22.34;49.34;95862.78;4957696;28;20725;-75
2021/06/26 10:29:35;;;;;;;10.63;9.10;;;;;;;22.44;48.61;95857.06;4974974;28;20184;-76
2021/06/26 10:32:11;;;;;;;10.30;9.32;;;;;;;22.46;48.65;95862.13;4957826;28;20187;-77
2021/06/26 10:34:50;;;;;;;10.40;9.38;;;;;;;22.11;52.55;95861.72;4943293;28;20232;-78
2021/06/26 10:37:20;;;;;;;12.23;9.32;;;;;;;22.12;48.70;95856.22;4959530;28;20251;-77
2021/06/26 10:39:46;;;;;;;11.52;9.93;;;;;;;22.46;49.51;95855.00;4959623;28;20179;-78
2021/06/26 10:42:14;;;;;;;11.15;10.15;;;;;;;22.20;49.73;95855.16;4956200;28;20181;-76
2021/06/26 10:44:42;;;;;;;9.75;8.85;;;;;;;22.09;49.25;95856.66;4948072;29;20590;-76
2021/06/26 10:47:09;;;;;;;10.65;9.52;;;;;;;22.19;48.90;95853.53;4940460;29;20205;-76
2021/06/26 10:49:34;;;;;;;10.30;9.25;;;;;;;21.83;50.26;95854.09;4940421;29;20177;-77
2021/06/26 10:52:08;;;;;;;9.40;8.50;;;;;;;22.54;48.02;95851.28;4946259;28;20192;-76
2021/06/26 10:54:34;;;;;;;8.52;7.72;;;;;;;23.06;47.14;95854.56;4945224;29;20223;-77
2021/06/26 10:57:04;;;;;;;8.68;7.88;;;;;;;22.82;47.83;95849.00;4940319;29;20705;-78
2021/06/26 10:59:30;;;;;;;9.10;8.30;;;;;;;22.48;47.26;95846.84;4956486;29;20657;-78
2021/06/26 11:01:56;;;;;;;9.73;8.70;;;;;;;22.72;48.26;95848.69;4948871;28;20191;-77
2021/06/26 11:04:22;;;;;;;10.18;8.43;;;;;;;22.50;49.11;95842.13;4966811;28;20179;-77
2021/06/26 11:06:50;;;;;;;9.85;8.63;;;;;;;22.61;47.23;95849.38;4942982;28;20291;-77
2021/06/26 11:09:16;;;;;;;9.68;8.77;;;;;;;22.67;46.80;95850.34;4958224;28;20675;-78
2021/06/26 11:11:50;;;;;;;9.63;8.73;;;;;;;23.04;46.68;95851.28;4958056;28;20180;-77
2021/06/26 11:14:20;;;;;;;9.50;8.60;;;;;;;23.34;46.30;95852.22;4931730;29;20926;-78
2021/06/26 11:16:50;;;;;;;9.40;8.45;;;;;;;23.53;46.72;95852.22;4939669;29;20264;-77